Terminal Aerodrome Forecast
Issued by NWS

Home | Current Version | Previous Version | Graphics & Text | Print | Product List | Glossary On
Versions: 1 2 3 4 5 6 7 8 9 10 11 12 13 14 15 16
000
FTUS43 KICT 260300 AAA
TAFHUT
TAF AMD
KHUT 260325Z 2603/2624 15008KT P6SM FEW080 SCT150
     FM260340 32020G28KT P6SM VCTS FEW050 SCT080 BKN100CB
     FM260500 03014KT P6SM SCT100
     FM261500 17009KT P6SM FEW200=

USA.gov is the U.S. government's official web portal to all federal, state and local government web resources and services.